sensor_id;sensor_type;location;lat;lon;timestamp;noise_LAeq;noise_LA_min;noise_LA_max;noise_LA01;noise_LA95
60031;Laerm;45901;47.600;9.890;2024-01-30T00:01:58;40.04;36.45;47.43;;
60031;Laerm;45901;47.600;9.890;2024-01-30T00:04:27;39.68;37.12;41.46;;
60031;Laerm;45901;47.600;9.890;2024-01-30T00:06:53;39.70;36.91;41.46;;
60031;Laerm;45901;47.600;9.890;2024-01-30T00:09:20;39.69;36.91;41.46;;
60031;Laerm;45901;47.600;9.890;2024-01-30T00:11:47;39.75;36.45;41.53;;
60031;Laerm;45901;47.600;9.890;2024-01-30T00:14:14;39.74;37.32;41.53;;
60031;Laerm;45901;47.600;9.890;2024-01-30T00:16:41;39.79;37.12;46.45;;
60031;Laerm;45901;47.600;9.890;2024-01-30T00:19:08;39.75;37.12;41.68;;
60031;Laerm;45901;47.600;9.890;2024-01-30T00:21:36;39.79;36.69;41.75;;
60031;Laerm;45901;47.600;9.890;2024-01-30T00:24:04;39.88;37.52;42.76;;
60031;Laerm;45901;47.600;9.890;2024-01-30T00:26:31;39.81;36.91;41.96;;
60031;Laerm;45901;47.600;9.890;2024-01-30T00:28:58;39.77;37.12;41.75;;
60031;Laerm;45901;47.600;9.890;2024-01-30T00:31:25;39.91;36.91;45.99;;
60031;Laerm;45901;47.600;9.890;2024-01-30T00:33:52;39.77;37.32;41.68;;
60031;Laerm;45901;47.600;9.890;2024-01-30T00:36:19;39.77;37.32;41.68;;
60031;Laerm;45901;47.600;9.890;2024-01-30T00:38:47;39.74;37.32;41.61;;
60031;Laerm;45901;47.600;9.890;2024-01-30T00:41:14;39.79;37.12;45.60;;
60031;Laerm;45901;47.600;9.890;2024-01-30T00:43:44;39.72;36.91;41.46;;
60031;Laerm;45901;47.600;9.890;2024-01-30T00:46:10;39.72;36.91;41.53;;
60031;Laerm;45901;47.600;9.890;2024-01-30T00:48:37;39.94;36.91;46.82;;
60031;Laerm;45901;47.600;9.890;2024-01-30T00:51:04;39.73;36.91;41.82;;
60031;Laerm;45901;47.600;9.890;2024-01-30T00:53:32;39.75;37.32;41.96;;
60031;Laerm;45901;47.600;9.890;2024-01-30T00:56:00;39.77;36.91;41.68;;
60031;Laerm;45901;47.600;9.890;2024-01-30T00:58:27;39.74;36.91;41.81;;
60031;Laerm;45901;47.600;9.890;2024-01-30T01:00:54;39.90;36.91;43.68;;
60031;Laerm;45901;47.600;9.890;2024-01-30T01:03:21;40.18;36.91;47.90;;
60031;Laerm;45901;47.600;9.890;2024-01-30T01:05:48;39.75;36.69;41.89;;
60031;Laerm;45901;47.600;9.890;2024-01-30T01:08:15;39.74;37.32;41.61;;
60031;Laerm;45901;47.600;9.890;2024-01-30T01:10:42;39.75;36.91;41.75;;
60031;Laerm;45901;47.600;9.890;2024-01-30T01:13:10;39.79;37.12;41.82;;
60031;Laerm;45901;47.600;9.890;2024-01-30T01:15:37;39.81;37.32;41.75;;
60031;Laerm;45901;47.600;9.890;2024-01-30T01:18:04;39.84;37.32;46.82;;
60031;Laerm;45901;47.600;9.890;2024-01-30T01:20:31;39.81;37.12;41.61;;
60031;Laerm;45901;47.600;9.890;2024-01-30T01:22:58;39.80;37.12;41.82;;
60031;Laerm;45901;47.600;9.890;2024-01-30T01:25:25;39.82;37.32;41.61;;
60031;Laerm;45901;47.600;9.890;2024-01-30T01:27:52;39.83;37.12;41.68;;
60031;Laerm;45901;47.600;9.890;2024-01-30T01:30:20;39.86;37.12;41.82;;
60031;Laerm;45901;47.600;9.890;2024-01-30T01:32:48;39.93;37.32;45.33;;
60031;Laerm;45901;47.600;9.890;2024-01-30T01:35:21;39.84;36.91;41.68;;
60031;Laerm;45901;47.600;9.890;2024-01-30T01:37:48;39.85;37.12;41.75;;
60031;Laerm;45901;47.600;9.890;2024-01-30T01:40:22;39.85;37.32;41.75;;
60031;Laerm;45901;47.600;9.890;2024-01-30T01:42:50;39.86;37.52;41.89;;
60031;Laerm;45901;47.600;9.890;2024-01-30T01:45:19;39.89;37.32;41.82;;
60031;Laerm;45901;47.600;9.890;2024-01-30T01:47:49;40.04;36.91;46.64;;
60031;Laerm;45901;47.600;9.890;2024-01-30T01:50:18;39.85;37.52;42.16;;
60031;Laerm;45901;47.600;9.890;2024-01-30T01:52:46;39.84;37.32;41.89;;
60031;Laerm;45901;47.600;9.890;2024-01-30T01:55:15;39.80;37.52;41.61;;
60031;Laerm;45901;47.600;9.890;2024-01-30T01:57:43;39.83;37.32;41.82;;
60031;Laerm;45901;47.600;9.890;2024-01-30T02:00:11;39.85;37.32;41.46;;
60031;Laerm;45901;47.600;9.890;2024-01-30T02:02:40;40.35;37.52;47.02;;
60031;Laerm;45901;47.600;9.890;2024-01-30T02:05:08;39.81;36.91;41.75;;
60031;Laerm;45901;47.600;9.890;2024-01-30T02:07:35;39.84;37.52;41.53;;
60031;Laerm;45901;47.600;9.890;2024-01-30T02:10:03;39.78;36.91;41.68;;
60031;Laerm;45901;47.600;9.890;2024-01-30T02:12:30;39.87;37.12;41.75;;
60031;Laerm;45901;47.600;9.890;2024-01-30T02:14:57;39.82;37.32;41.53;;
60031;Laerm;45901;47.600;9.890;2024-01-30T02:17:24;39.92;36.69;45.80;;
60031;Laerm;45901;47.600;9.890;2024-01-30T02:19:53;39.77;37.12;41.53;;
60031;Laerm;45901;47.600;9.890;2024-01-30T02:22:22;39.80;37.32;41.61;;
60031;Laerm;45901;47.600;9.890;2024-01-30T02:24:49;39.78;37.32;41.68;;
60031;Laerm;45901;47.600;9.890;2024-01-30T02:27:16;39.82;37.32;41.61;;
60031;Laerm;45901;47.600;9.890;2024-01-30T02:29:43;39.79;37.52;41.82;;
60031;Laerm;45901;47.600;9.890;2024-01-30T02:32:10;39.86;37.12;45.23;;
60031;Laerm;45901;47.600;9.890;2024-01-30T02:34:37;39.84;37.32;41.96;;
60031;Laerm;45901;47.600;9.890;2024-01-30T02:37:04;39.81;37.70;41.68;;
60031;Laerm;45901;47.600;9.890;2024-01-30T02:39:33;39.88;37.52;41.75;;
60031;Laerm;45901;47.600;9.890;2024-01-30T02:42:00;39.88;37.52;41.68;;
60031;Laerm;45901;47.600;9.890;2024-01-30T02:44:26;39.85;37.32;41.53;;
60031;Laerm;45901;47.600;9.890;2024-01-30T02:46:53;40.01;37.70;45.23;;
60031;Laerm;45901;47.600;9.890;2024-01-30T02:49:21;39.92;37.12;41.61;;
60031;Laerm;45901;47.600;9.890;2024-01-30T02:51:48;39.91;37.70;41.82;;
60031;Laerm;45901;47.600;9.890;2024-01-30T02:54:15;39.85;37.12;41.82;;
60031;Laerm;45901;47.600;9.890;2024-01-30T02:56:43;40.14;37.52;46.59;;
60031;Laerm;45901;47.600;9.890;2024-01-30T02:59:10;39.89;37.32;41.82;;
60031;Laerm;45901;47.600;9.890;2024-01-30T03:01:43;40.35;37.52;46.18;;
60031;Laerm;45901;47.600;9.890;2024-01-30T03:04:10;39.90;37.52;42.53;;
60031;Laerm;45901;47.600;9.890;2024-01-30T03:06:38;39.88;37.12;43.09;;
60031;Laerm;45901;47.600;9.890;2024-01-30T03:09:05;39.95;37.52;42.93;;
60031;Laerm;45901;47.600;9.890;2024-01-30T03:11:32;39.84;36.91;41.68;;
60031;Laerm;45901;47.600;9.890;2024-01-30T03:14:01;39.90;37.70;41.75;;
60031;Laerm;45901;47.600;9.890;2024-01-30T03:16:27;39.96;37.52;45.89;;
60031;Laerm;45901;47.600;9.890;2024-01-30T03:18:54;39.96;37.52;42.29;;
60031;Laerm;45901;47.600;9.890;2024-01-30T03:21:21;39.89;37.52;41.89;;
60031;Laerm;45901;47.600;9.890;2024-01-30T03:23:48;39.83;37.32;41.53;;
60031;Laerm;45901;47.600;9.890;2024-01-30T03:26:15;40.12;37.52;47.04;;
60031;Laerm;45901;47.600;9.890;2024-01-30T03:28:42;39.84;37.52;41.68;;
60031;Laerm;45901;47.600;9.890;2024-01-30T03:31:14;39.90;37.70;41.75;;
60031;Laerm;45901;47.600;9.890;2024-01-30T03:33:41;40.02;37.12;46.18;;
60031;Laerm;45901;47.600;9.890;2024-01-30T03:36:09;39.95;37.32;42.03;;
60031;Laerm;45901;47.600;9.890;2024-01-30T03:38:36;39.94;37.52;41.75;;
60031;Laerm;45901;47.600;9.890;2024-01-30T03:41:07;39.99;37.70;42.09;;
60031;Laerm;45901;47.600;9.890;2024-01-30T03:43:34;39.99;37.70;42.35;;
60031;Laerm;45901;47.600;9.890;2024-01-30T03:46:01;39.92;37.32;41.68;;
60031;Laerm;45901;47.600;9.890;2024-01-30T03:48:30;40.07;37.12;44.94;;
60031;Laerm;45901;47.600;9.890;2024-01-30T03:50:57;39.92;37.52;41.68;;
60031;Laerm;45901;47.600;9.890;2024-01-30T03:53:24;39.88;37.70;41.75;;
60031;Laerm;45901;47.600;9.890;2024-01-30T03:55:51;39.92;37.52;41.82;;
60031;Laerm;45901;47.600;9.890;2024-01-30T03:58:18;39.95;37.88;41.75;;
60031;Laerm;45901;47.600;9.890;2024-01-30T04:00:45;39.99;37.32;41.96;;
60031;Laerm;45901;47.600;9.890;2024-01-30T04:03:12;40.53;37.12;47.63;;
60031;Laerm;45901;47.600;9.890;2024-01-30T04:05:42;39.94;37.12;42.03;;
60031;Laerm;45901;47.600;9.890;2024-01-30T04:08:09;39.93;36.91;42.09;;
60031;Laerm;45901;47.600;9.890;2024-01-30T04:10:36;40.12;37.12;42.82;;
60031;Laerm;45901;47.600;9.890;2024-01-30T04:13:04;40.03;37.52;41.82;;
60031;Laerm;45901;47.600;9.890;2024-01-30T04:15:30;40.01;37.52;44.03;;
60031;Laerm;45901;47.600;9.890;2024-01-30T04:17:58;40.10;37.52;45.70;;
60031;Laerm;45901;47.600;9.890;2024-01-30T04:20:25;39.98;37.70;41.89;;
60031;Laerm;45901;47.600;9.890;2024-01-30T04:22:54;40.25;37.12;44.54;;
60031;Laerm;45901;47.600;9.890;2024-01-30T04:25:21;39.99;37.52;41.89;;
60031;Laerm;45901;47.600;9.890;2024-01-30T04:27:48;39.97;37.32;43.09;;
60031;Laerm;45901;47.600;9.890;2024-01-30T04:30:15;39.97;37.12;41.75;;
60031;Laerm;45901;47.600;9.890;2024-01-30T04:32:43;40.15;37.52;45.75;;
60031;Laerm;45901;47.600;9.890;2024-01-30T04:35:10;40.06;37.12;42.35;;
60031;Laerm;45901;47.600;9.890;2024-01-30T04:37:37;39.96;37.52;41.75;;
60031;Laerm;45901;47.600;9.890;2024-01-30T04:40:07;40.08;37.88;42.41;;
60031;Laerm;45901;47.600;9.890;2024-01-30T04:42:35;40.22;36.91;42.03;;
60031;Laerm;45901;47.600;9.890;2024-01-30T04:45:02;40.05;37.88;41.75;;
60031;Laerm;45901;47.600;9.890;2024-01-30T04:47:29;40.33;37.52;46.02;;
60031;Laerm;45901;47.600;9.890;2024-01-30T04:49:56;40.07;37.52;42.09;;
60031;Laerm;45901;47.600;9.890;2024-01-30T04:52:23;40.29;37.32;44.65;;
60031;Laerm;45901;47.600;9.890;2024-01-30T04:54:50;40.05;37.88;41.89;;
60031;Laerm;45901;47.600;9.890;2024-01-30T04:57:18;40.06;37.52;42.76;;
60031;Laerm;45901;47.600;9.890;2024-01-30T04:59:45;40.04;36.69;41.96;;
60031;Laerm;45901;47.600;9.890;2024-01-30T05:02:12;40.87;38.02;46.91;;
60031;Laerm;45901;47.600;9.890;2024-01-30T05:04:41;40.49;37.32;45.45;;
60031;Laerm;45901;47.600;9.890;2024-01-30T05:07:08;40.19;38.02;49.53;;
60031;Laerm;45901;47.600;9.890;2024-01-30T05:09:34;40.09;37.52;44.42;;
60031;Laerm;45901;47.600;9.890;2024-01-30T05:12:02;40.02;37.32;41.89;;
60031;Laerm;45901;47.600;9.890;2024-01-30T05:14:30;40.19;37.70;45.89;;
60031;Laerm;45901;47.600;9.890;2024-01-30T05:16:57;40.11;37.70;46.08;;
60031;Laerm;45901;47.600;9.890;2024-01-30T05:19:24;40.07;37.70;42.03;;
60031;Laerm;45901;47.600;9.890;2024-01-30T05:21:51;40.11;37.52;41.96;;
60031;Laerm;45901;47.600;9.890;2024-01-30T05:24:18;40.24;37.88;43.34;;
60031;Laerm;45901;47.600;9.890;2024-01-30T05:26:45;40.02;37.87;41.68;;
60031;Laerm;45901;47.600;9.890;2024-01-30T05:29:13;40.06;37.52;42.03;;
60031;Laerm;45901;47.600;9.890;2024-01-30T05:31:41;40.30;37.70;45.57;;
60031;Laerm;45901;47.600;9.890;2024-01-30T05:34:08;40.20;37.70;42.93;;
60031;Laerm;45901;47.600;9.890;2024-01-30T05:36:35;40.20;37.32;48.58;;
60031;Laerm;45901;47.600;9.890;2024-01-30T05:39:02;40.22;37.32;43.39;;
60031;Laerm;45901;47.600;9.890;2024-01-30T05:41:29;40.25;37.52;43.90;;
60031;Laerm;45901;47.600;9.890;2024-01-30T05:43:56;40.35;37.70;46.59;;
60031;Laerm;45901;47.600;9.890;2024-01-30T05:46:23;40.42;37.70;45.27;;
60031;Laerm;45901;47.600;9.890;2024-01-30T05:48:52;40.26;37.88;47.36;;
60031;Laerm;45901;47.600;9.890;2024-01-30T05:51:19;40.29;37.52;43.09;;
60031;Laerm;45901;47.600;9.890;2024-01-30T05:53:46;40.39;38.21;48.13;;
60031;Laerm;45901;47.600;9.890;2024-01-30T05:56:13;40.67;38.37;43.34;;
60031;Laerm;45901;47.600;9.890;2024-01-30T05:58:40;40.69;38.05;43.04;;
60031;Laerm;45901;47.600;9.890;2024-01-30T06:01:08;40.74;38.47;43.44;;
60031;Laerm;45901;47.600;9.890;2024-01-30T06:03:35;41.02;38.21;46.25;;
60031;Laerm;45901;47.600;9.890;2024-01-30T06:06:04;40.77;38.52;43.77;;
60031;Laerm;45901;47.600;9.890;2024-01-30T06:08:31;40.49;38.05;42.42;;
60031;Laerm;45901;47.600;9.890;2024-01-30T06:10:59;40.34;38.05;43.04;;
60031;Laerm;45901;47.600;9.890;2024-01-30T06:13:26;40.33;37.70;44.39;;
60031;Laerm;45901;47.600;9.890;2024-01-30T06:15:53;40.31;37.12;42.82;;
60031;Laerm;45901;47.600;9.890;2024-01-30T06:18:20;40.40;38.05;45.91;;
60031;Laerm;45901;47.600;9.890;2024-01-30T06:20:47;40.47;38.05;44.76;;
60031;Laerm;45901;47.600;9.890;2024-01-30T06:23:15;40.31;38.05;45.83;;
60031;Laerm;45901;47.600;9.890;2024-01-30T06:25:42;41.10;38.37;45.07;;
60031;Laerm;45901;47.600;9.890;2024-01-30T06:28:09;41.73;37.88;63.47;;
60031;Laerm;45901;47.600;9.890;2024-01-30T06:30:36;45.87;38.05;73.77;;
60031;Laerm;45901;47.600;9.890;2024-01-30T06:33:03;48.84;38.21;69.73;;
60031;Laerm;45901;47.600;9.890;2024-01-30T06:35:30;48.46;38.21;71.53;;
60031;Laerm;45901;47.600;9.890;2024-01-30T06:37:57;41.61;38.21;60.10;;
60031;Laerm;45901;47.600;9.890;2024-01-30T06:40:25;40.78;38.05;46.02;;
60031;Laerm;45901;47.600;9.890;2024-01-30T06:42:52;40.42;38.21;45.45;;
60031;Laerm;45901;47.600;9.890;2024-01-30T06:45:20;40.71;38.37;52.49;;
60031;Laerm;45901;47.600;9.890;2024-01-30T06:47:47;40.83;38.21;44.97;;
60031;Laerm;45901;47.600;9.890;2024-01-30T06:50:14;40.66;38.37;44.03;;
60031;Laerm;45901;47.600;9.890;2024-01-30T06:52:41;40.59;37.52;42.82;;
60031;Laerm;45901;47.600;9.890;2024-01-30T06:55:09;40.52;38.05;44.35;;
60031;Laerm;45901;47.600;9.890;2024-01-30T06:57:37;40.58;38.37;44.15;;
60031;Laerm;45901;47.600;9.890;2024-01-30T07:00:06;40.72;38.05;47.93;;
60031;Laerm;45901;47.600;9.890;2024-01-30T07:02:33;41.22;38.37;46.80;;
60031;Laerm;45901;47.600;9.890;2024-01-30T07:05:00;41.19;38.21;53.43;;
60031;Laerm;45901;47.600;9.890;2024-01-30T07:07:27;41.46;38.67;51.40;;
60031;Laerm;45901;47.600;9.890;2024-01-30T07:09:54;42.42;40.03;52.87;;
60031;Laerm;45901;47.600;9.890;2024-01-30T07:12:22;42.64;40.23;56.00;;
60031;Laerm;45901;47.600;9.890;2024-01-30T07:14:52;41.21;38.37;50.65;;
60031;Laerm;45901;47.600;9.890;2024-01-30T07:17:19;40.95;38.52;46.50;;
60031;Laerm;45901;47.600;9.890;2024-01-30T07:19:46;40.68;37.70;44.19;;
60031;Laerm;45901;47.600;9.890;2024-01-30T07:22:13;40.42;37.88;48.13;;
60031;Laerm;45901;47.600;9.890;2024-01-30T07:24:42;40.33;37.70;46.28;;
60031;Laerm;45901;47.600;9.890;2024-01-30T07:27:13;41.24;38.67;44.80;;
60031;Laerm;45901;47.600;9.890;2024-01-30T07:29:41;40.28;37.88;42.16;;
60031;Laerm;45901;47.600;9.890;2024-01-30T07:32:09;40.35;37.52;45.86;;
60031;Laerm;45901;47.600;9.890;2024-01-30T07:34:36;40.16;37.32;41.89;;
60031;Laerm;45901;47.600;9.890;2024-01-30T07:37:03;40.62;37.88;45.73;;
60031;Laerm;45901;47.600;9.890;2024-01-30T07:39:30;40.17;37.70;41.96;;
60031;Laerm;45901;47.600;9.890;2024-01-30T07:41:57;40.14;37.12;42.16;;
60031;Laerm;45901;47.600;9.890;2024-01-30T07:44:24;40.39;37.70;42.98;;
60031;Laerm;45901;47.600;9.890;2024-01-30T07:46:51;40.72;38.21;46.55;;
60031;Laerm;45901;47.600;9.890;2024-01-30T07:49:20;41.40;38.52;43.54;;
60031;Laerm;45901;47.600;9.890;2024-01-30T07:51:47;41.23;38.37;49.69;;
60031;Laerm;45901;47.600;9.890;2024-01-30T07:54:14;40.82;38.52;43.77;;
60031;Laerm;45901;47.600;9.890;2024-01-30T07:56:41;40.50;38.05;45.27;;
60031;Laerm;45901;47.600;9.890;2024-01-30T07:59:10;40.35;38.05;44.94;;
60031;Laerm;45901;47.600;9.890;2024-01-30T08:01:36;40.76;37.70;46.38;;
60031;Laerm;45901;47.600;9.890;2024-01-30T08:04:04;40.35;38.05;46.45;;
60031;Laerm;45901;47.600;9.890;2024-01-30T08:06:33;40.45;37.52;44.27;;
60031;Laerm;45901;47.600;9.890;2024-01-30T08:08:59;40.29;37.52;45.36;;
60031;Laerm;45901;47.600;9.890;2024-01-30T08:11:26;40.32;37.32;45.60;;
60031;Laerm;45901;47.600;9.890;2024-01-30T08:13:55;40.55;38.21;53.74;;
60031;Laerm;45901;47.600;9.890;2024-01-30T08:16:22;40.59;37.32;47.67;;
60031;Laerm;45901;47.600;9.890;2024-01-30T08:18:49;40.30;37.70;43.19;;
60031;Laerm;45901;47.600;9.890;2024-01-30T08:21:16;40.54;37.70;44.76;;
60031;Laerm;45901;47.600;9.890;2024-01-30T08:23:44;40.51;37.52;46.15;;
60031;Laerm;45901;47.600;9.890;2024-01-30T08:26:11;40.63;37.52;47.02;;
60031;Laerm;45901;47.600;9.890;2024-01-30T08:28:38;41.20;37.52;50.70;;
60031;Laerm;45901;47.600;9.890;2024-01-30T08:31:05;40.32;37.32;43.77;;
60031;Laerm;45901;47.600;9.890;2024-01-30T08:33:32;40.22;37.32;46.73;;
60031;Laerm;45901;47.600;9.890;2024-01-30T08:35:59;40.04;37.52;42.22;;
60031;Laerm;45901;47.600;9.890;2024-01-30T08:38:26;40.38;37.70;44.07;;
60031;Laerm;45901;47.600;9.890;2024-01-30T08:40:55;41.64;38.05;45.30;;
60031;Laerm;45901;47.600;9.890;2024-01-30T08:43:22;40.59;38.05;43.94;;
60031;Laerm;45901;47.600;9.890;2024-01-30T08:45:49;40.23;37.70;43.81;;
60031;Laerm;45901;47.600;9.890;2024-01-30T08:48:16;40.64;37.32;46.78;;
60031;Laerm;45901;47.600;9.890;2024-01-30T08:50:43;42.67;38.21;53.84;;
60031;Laerm;45901;47.600;9.890;2024-01-30T08:53:10;40.43;37.52;44.27;;
60031;Laerm;45901;47.600;9.890;2024-01-30T08:55:37;40.14;37.32;44.58;;
60031;Laerm;45901;47.600;9.890;2024-01-30T08:58:06;40.15;36.45;57.84;;
60031;Laerm;45901;47.600;9.890;2024-01-30T09:00:33;40.66;37.32;55.11;;
60031;Laerm;45901;47.600;9.890;2024-01-30T09:03:00;43.37;37.52;57.68;;
60031;Laerm;45901;47.600;9.890;2024-01-30T09:05:27;40.33;35.94;51.30;;
60031;Laerm;45901;47.600;9.890;2024-01-30T09:07:54;43.37;36.69;57.99;;
60031;Laerm;45901;47.600;9.890;2024-01-30T09:10:21;40.35;36.91;56.20;;
60031;Laerm;45901;47.600;9.890;2024-01-30T09:12:48;40.33;37.52;43.68;;
60031;Laerm;45901;47.600;9.890;2024-01-30T09:15:17;40.14;37.32;47.26;;
60031;Laerm;45901;47.600;9.890;2024-01-30T09:17:44;40.07;36.69;46.07;;
60031;Laerm;45901;47.600;9.890;2024-01-30T09:20:11;40.00;36.91;47.42;;
60031;Laerm;45901;47.600;9.890;2024-01-30T09:22:38;40.29;36.77;48.01;;
60031;Laerm;45901;47.600;9.890;2024-01-30T09:25:06;40.12;36.69;48.29;;
60031;Laerm;45901;47.600;9.890;2024-01-30T09:27:33;40.59;37.12;46.30;;
60031;Laerm;45901;47.600;9.890;2024-01-30T09:29:59;40.24;36.91;45.66;;
60031;Laerm;45901;47.600;9.890;2024-01-30T09:32:27;40.37;37.12;46.98;;
60031;Laerm;45901;47.600;9.890;2024-01-30T09:34:54;40.00;37.12;45.20;;
60031;Laerm;45901;47.600;9.890;2024-01-30T09:37:21;39.78;36.69;42.88;;
60031;Laerm;45901;47.600;9.890;2024-01-30T09:39:48;41.81;36.91;66.44;;
60031;Laerm;45901;47.600;9.890;2024-01-30T09:42:26;39.56;36.45;42.82;;
60031;Laerm;45901;47.600;9.890;2024-01-30T09:44:55;40.37;36.91;43.99;;
60031;Laerm;45901;47.600;9.890;2024-01-30T09:47:22;40.16;36.20;47.95;;
60031;Laerm;45901;47.600;9.890;2024-01-30T09:49:51;40.45;36.91;47.67;;
60031;Laerm;45901;47.600;9.890;2024-01-30T09:52:18;40.48;36.20;56.26;;
60031;Laerm;45901;47.600;9.890;2024-01-30T09:54:46;40.32;36.20;49.95;;
60031;Laerm;45901;47.600;9.890;2024-01-30T09:57:14;39.34;35.66;42.16;;
60031;Laerm;45901;47.600;9.890;2024-01-30T09:59:42;40.04;36.45;46.28;;
60031;Laerm;45901;47.600;9.890;2024-01-30T10:02:10;40.94;36.69;48.63;;
60031;Laerm;45901;47.600;9.890;2024-01-30T10:04:37;39.37;35.94;42.03;;
60031;Laerm;45901;47.600;9.890;2024-01-30T10:07:05;39.70;36.20;47.77;;
60031;Laerm;45901;47.600;9.890;2024-01-30T10:09:33;40.37;37.12;43.49;;
60031;Laerm;45901;47.600;9.890;2024-01-30T10:12:02;39.65;36.91;43.09;;
60031;Laerm;45901;47.600;9.890;2024-01-30T10:14:30;39.86;36.45;43.24;;
60031;Laerm;45901;47.600;9.890;2024-01-30T10:16:58;39.57;35.66;54.48;;
60031;Laerm;45901;47.600;9.890;2024-01-30T10:19:25;39.77;36.20;49.02;;
60031;Laerm;45901;47.600;9.890;2024-01-30T10:21:52;40.49;35.94;45.91;;
60031;Laerm;45901;47.600;9.890;2024-01-30T10:24:24;41.21;36.91;52.51;;
60031;Laerm;45901;47.600;9.890;2024-01-30T10:26:51;40.42;37.12;46.52;;
60031;Laerm;45901;47.600;9.890;2024-01-30T10:29:18;40.28;36.69;44.76;;
60031;Laerm;45901;47.600;9.890;2024-01-30T10:31:45;40.10;36.45;47.76;;
60031;Laerm;45901;47.600;9.890;2024-01-30T10:34:13;39.31;36.45;42.53;;
60031;Laerm;45901;47.600;9.890;2024-01-30T10:36:40;39.57;36.20;45.11;;
60031;Laerm;45901;47.600;9.890;2024-01-30T10:39:08;39.38;36.20;47.68;;
60031;Laerm;45901;47.600;9.890;2024-01-30T10:41:44;40.68;36.20;53.93;;
60031;Laerm;45901;47.600;9.890;2024-01-30T10:44:11;41.63;36.91;55.77;;
60031;Laerm;45901;47.600;9.890;2024-01-30T10:46:39;42.38;36.45;53.98;;
60031;Laerm;45901;47.600;9.890;2024-01-30T10:49:09;40.76;36.91;56.11;;
60031;Laerm;45901;47.600;9.890;2024-01-30T10:51:37;42.46;37.12;60.19;;
60031;Laerm;45901;47.600;9.890;2024-01-30T10:54:05;40.41;37.12;51.31;;
60031;Laerm;45901;47.600;9.890;2024-01-30T10:56:34;40.49;37.52;49.24;;
60031;Laerm;45901;47.600;9.890;2024-01-30T10:59:03;40.26;37.87;45.63;;
60031;Laerm;45901;47.600;9.890;2024-01-30T11:01:30;41.31;37.52;55.12;;
60031;Laerm;45901;47.600;9.890;2024-01-30T11:03:58;41.56;38.05;50.57;;
60031;Laerm;45901;47.600;9.890;2024-01-30T11:06:25;43.57;37.52;61.23;;
60031;Laerm;45901;47.600;9.890;2024-01-30T11:09:02;40.45;37.52;54.23;;
60031;Laerm;45901;47.600;9.890;2024-01-30T11:11:50;42.20;38.05;54.34;;
60031;Laerm;45901;47.600;9.890;2024-01-30T11:14:23;43.06;37.70;58.51;;
60031;Laerm;45901;47.600;9.890;2024-01-30T11:16:51;43.05;37.52;57.57;;
60031;Laerm;45901;47.600;9.890;2024-01-30T11:19:23;41.77;37.70;57.19;;
60031;Laerm;45901;47.600;9.890;2024-01-30T11:21:52;42.73;38.02;54.83;;
60031;Laerm;45901;47.600;9.890;2024-01-30T11:24:20;41.16;37.52;52.86;;
60031;Laerm;45901;47.600;9.890;2024-01-30T11:26:48;41.57;38.21;50.49;;
60031;Laerm;45901;47.600;9.890;2024-01-30T11:29:18;40.73;37.70;45.48;;
60031;Laerm;45901;47.600;9.890;2024-01-30T11:31:54;41.08;37.12;52.65;;
60031;Laerm;45901;47.600;9.890;2024-01-30T11:34:22;41.10;37.52;52.16;;
60031;Laerm;45901;47.600;9.890;2024-01-30T11:36:52;40.63;37.70;45.17;;
60031;Laerm;45901;47.600;9.890;2024-01-30T11:39:24;41.11;37.70;49.93;;
60031;Laerm;45901;47.600;9.890;2024-01-30T11:41:52;41.25;35.94;55.26;;
60031;Laerm;45901;47.600;9.890;2024-01-30T11:44:21;41.10;37.88;54.61;;
60031;Laerm;45901;47.600;9.890;2024-01-30T11:46:49;41.21;37.88;50.33;;
60031;Laerm;45901;47.600;9.890;2024-01-30T11:49:16;40.65;37.52;49.29;;
60031;Laerm;45901;47.600;9.890;2024-01-30T11:51:45;40.39;37.88;47.04;;
60031;Laerm;45901;47.600;9.890;2024-01-30T11:54:14;40.34;37.52;47.20;;
60031;Laerm;45901;47.600;9.890;2024-01-30T11:56:42;41.22;37.32;53.93;;
60031;Laerm;45901;47.600;9.890;2024-01-30T11:59:09;41.61;37.52;56.33;;
60031;Laerm;45901;47.600;9.890;2024-01-30T12:01:38;41.13;37.70;51.06;;
60031;Laerm;45901;47.600;9.890;2024-01-30T12:04:05;42.47;37.52;58.30;;
60031;Laerm;45901;47.600;9.890;2024-01-30T12:06:34;41.62;38.05;55.72;;
60031;Laerm;45901;47.600;9.890;2024-01-30T12:09:03;40.59;37.53;45.39;;
60031;Laerm;45901;47.600;9.890;2024-01-30T12:11:31;41.59;37.70;51.50;;
60031;Laerm;45901;47.600;9.890;2024-01-30T12:13:58;40.67;37.88;49.14;;
60031;Laerm;45901;47.600;9.890;2024-01-30T12:16:25;42.64;37.70;56.20;;
60031;Laerm;45901;47.600;9.890;2024-01-30T12:19:00;40.99;37.87;53.38;;
60031;Laerm;45901;47.600;9.890;2024-01-30T12:21:28;40.93;37.52;60.21;;
60031;Laerm;45901;47.600;9.890;2024-01-30T12:23:56;50.61;38.21;62.78;;
60031;Laerm;45901;47.600;9.890;2024-01-30T12:26:24;45.52;37.88;60.39;;
60031;Laerm;45901;47.600;9.890;2024-01-30T12:28:55;44.15;37.70;58.13;;
60031;Laerm;45901;47.600;9.890;2024-01-30T12:31:26;42.03;37.88;55.10;;
60031;Laerm;45901;47.600;9.890;2024-01-30T12:33:53;41.84;37.70;53.15;;
60031;Laerm;45901;47.600;9.890;2024-01-30T12:36:22;43.80;38.05;59.35;;
60031;Laerm;45901;47.600;9.890;2024-01-30T12:38:50;45.24;38.21;61.87;;
60031;Laerm;45901;47.600;9.890;2024-01-30T12:41:17;44.67;38.05;58.83;;
60031;Laerm;45901;47.600;9.890;2024-01-30T12:43:45;43.00;38.05;57.16;;
60031;Laerm;45901;47.600;9.890;2024-01-30T12:46:13;43.02;37.52;56.08;;
60031;Laerm;45901;47.600;9.890;2024-01-30T12:48:40;42.95;37.88;58.71;;
60031;Laerm;45901;47.600;9.890;2024-01-30T12:51:07;42.43;37.32;57.43;;
60031;Laerm;45901;47.600;9.890;2024-01-30T12:53:35;41.69;37.70;59.35;;
60031;Laerm;45901;47.600;9.890;2024-01-30T12:56:03;41.24;38.05;54.76;;
60031;Laerm;45901;47.600;9.890;2024-01-30T12:58:30;41.39;37.88;56.35;;
60031;Laerm;45901;47.600;9.890;2024-01-30T13:00:57;42.17;37.52;56.41;;
60031;Laerm;45901;47.600;9.890;2024-01-30T13:03:24;41.44;37.70;51.61;;
60031;Laerm;45901;47.600;9.890;2024-01-30T13:05:51;40.14;37.52;44.90;;
60031;Laerm;45901;47.600;9.890;2024-01-30T13:08:18;42.02;36.69;56.54;;
60031;Laerm;45901;47.600;9.890;2024-01-30T13:10:46;42.31;37.70;56.99;;
60031;Laerm;45901;47.600;9.890;2024-01-30T13:13:13;40.70;37.52;52.37;;
60031;Laerm;45901;47.600;9.890;2024-01-30T13:15:40;41.03;37.52;52.50;;
60031;Laerm;45901;47.600;9.890;2024-01-30T13:18:07;41.01;36.69;54.16;;
60031;Laerm;45901;47.600;9.890;2024-01-30T13:20:34;41.29;37.32;56.26;;
60031;Laerm;45901;47.600;9.890;2024-01-30T13:23:01;42.89;37.12;68.16;;
60031;Laerm;45901;47.600;9.890;2024-01-30T13:25:28;40.73;37.88;46.62;;
60031;Laerm;45901;47.600;9.890;2024-01-30T13:27:56;40.76;37.52;49.39;;
60031;Laerm;45901;47.600;9.890;2024-01-30T13:30:23;40.33;38.05;54.22;;
60031;Laerm;45901;47.600;9.890;2024-01-30T13:32:50;40.98;37.70;58.78;;
60031;Laerm;45901;47.600;9.890;2024-01-30T13:35:17;41.72;38.05;66.51;;
60031;Laerm;45901;47.600;9.890;2024-01-30T13:37:44;40.56;37.32;47.84;;
60031;Laerm;45901;47.600;9.890;2024-01-30T13:40:13;40.83;37.70;50.61;;
60031;Laerm;45901;47.600;9.890;2024-01-30T13:42:42;40.50;37.12;53.06;;
60031;Laerm;45901;47.600;9.890;2024-01-30T13:45:10;39.98;37.70;46.05;;
60031;Laerm;45901;47.600;9.890;2024-01-30T13:47:38;42.10;37.88;52.74;;